Terminal Aerodrome Forecast
Issued by NWS

Home | Current Version | Previous Version | Text Only | Print | Product List | Glossary On
Versions: 1 2 3 4 5 6 7 8 9 10 11 12 13 14 15 16 17 18 19 20 21 22 23
000
FTUS43 KBIS 301731
TAFDIK
TAF
KDIK 301731Z 3018/3118 14016KT P6SM SCT040
     FM310000 13016KT P6SM SCT050 BKN120
     FM310600 13016G22KT P6SM VCSH SCT020 OVC080
     FM310900 13014KT P6SM -SHRA SCT015 OVC025
      TEMPO 3109/3113 3SM -SHRA BR SCT006 OVC015
     FM311300 14015KT P6SM SCT015 BKN035=

USA.gov is the U.S. government's official web portal to all federal, state and local government web resources and services.